CheckWX is a tool to help pilots better visualize weather data.  It is not intended as a substitute for an official pre-flight weather briefing.

10:06:48 UTC

LLHA TAF
Haifa International Airport
Haifa, Israel
TAF LLHA 260510Z 2606/2706 30005KT 9999 FEW010 BECMG 2607/2609 32012KT CAVOK PROB40 2611/2618 9999 SCT012 BECMG 2618/2620 VRB04KT 8000 FEW010 TX32/2611Z TN25/2703Z

Jun-26@
06:00 UTC

Jun-26 @ 06:00 UTC

Jun-26@
07:00 UTC

Jun-26 @ 07:00 UTC

TAF LLHA 260510Z 2606/2706 30005KT 9999 FEW010

Expired

Wind
  • 300° at 5 KTS
Cloud Levels
  • Few at 1,000' AGL

Jun-26@
07:00 UTC

Jun-26 @ 07:00 UTC

Jun-26@
18:00 UTC

Jun-26 @ 18:00 UTC

BECMG 2607/2609 32012KT CAVOK

Becoming

Becoming Conditions expected by Wed, Jun 26, 2019 @ 09:00 UTC

Wind
  • 320° at 12 KTS
Conditions
No significant weather
Cloud Levels
  • No significant clouds

Jun-26@
11:00 UTC

Jun-26 @ 11:00 UTC

Jun-26@
18:00 UTC

Jun-26 @ 18:00 UTC

PROB40 2611/2618 9999 SCT012

Probable - 40% Likelihood

Probable - 40% Likelihood during this time.

Cloud Levels
  • Scattered at 1,200' AGL

Jun-26@
18:00 UTC

Jun-26 @ 18:00 UTC

Jun-27@
06:00 UTC

Jun-27 @ 06:00 UTC

BECMG 2618/2620 VRB04KT 8000 FEW010 TX32/2611Z TN25/2703Z

Becoming

Becoming Conditions expected by Wed, Jun 26, 2019 @ 20:00 UTC

Wind
  • Variable at 4 KTS
Conditions
No significant weather
Cloud Levels
  • Few at 1,000' AGL